Toronto, Canada
Current Conditions -  °F | °C
As of 3:00 PM on Thursday 27 Nov 2014 (Local Time) from CYYZ Reporting Station
Broken Clouds Broken Clouds  
Wind Chill: 28°   Ceiling: 5600
Heat Index: 36°   Visibility: 15mi
Dew Point: 21°   Wind: 10mph
Humidity: 56%   Direction: 290°WNW
Pressure: 30.04"   Gusts: NA
Location:  43.65°N, 79.39°W
Report Text: CYYZ 272000Z 29009KT 15SM FEW036 BKN056 02/M06 A3004 RMK CU2SC5 SLP179
Loading
Personal Weather Stations






























Interactive Weather Map New forecast layout! Learn more

10-Day Weather Forecast

Advertisements
Track Severe Weather on mobile